Tuckerdale, North Carolina
Current Conditions -  °F | °C
As of 6:55 AM on Wednesday 28 Jan 2015 (Local Time) from KGEV Reporting Station
Clear Clear  
Wind Chill: 16°   Ceiling: Unl
Heat Index: 16°   Visibility: 10mi
Dew Point:   Wind: 3mph
Humidity: 74%   Direction: 130°SE
Pressure: 30.07"   Gusts: NA
Location:  36.524°N, 81.538°W
Report Text: KGEV 281155Z AUTO 13003KT 10SM CLR M09/M13 A3007 RMK AO2 T10891127 11066 21089
Loading
Personal Weather Stations






























Interactive Weather Map New forecast layout! Learn more

10-Day Weather Forecast

Advertisements
Track Severe Weather on mobile